sensor_id;sensor_type;location;lat;lon;timestamp;pressure;altitude;pressure_sealevel;temperature;humidity
49709;BME280;35601;55.902;13.606;2023-12-14T00:00:38;100489.73;;;-3.96;71.94
49709;BME280;35601;55.902;13.606;2023-12-14T00:03:03;100492.42;;;-4.05;72.13
49709;BME280;35601;55.902;13.606;2023-12-14T00:05:28;100489.90;;;-4.25;72.79
49709;BME280;35601;55.902;13.606;2023-12-14T00:07:54;100493.33;;;-3.81;73.24
49709;BME280;35601;55.902;13.606;2023-12-14T00:10:19;100493.94;;;-4.09;73.51
49709;BME280;35601;55.902;13.606;2023-12-14T00:12:45;100496.55;;;-4.26;73.86
49709;BME280;35601;55.902;13.606;2023-12-14T00:15:10;100497.37;;;-4.48;73.88
49709;BME280;35601;55.902;13.606;2023-12-14T00:17:36;100498.35;;;-4.34;73.59
49709;BME280;35601;55.902;13.606;2023-12-14T00:20:01;100502.25;;;-3.97;73.82
49709;BME280;35601;55.902;13.606;2023-12-14T00:22:26;100504.35;;;-3.90;73.43
49709;BME280;35601;55.902;13.606;2023-12-14T00:24:52;100505.49;;;-4.17;73.02
49709;BME280;35601;55.902;13.606;2023-12-14T00:27:17;100510.77;;;-4.29;73.03
49709;BME280;35601;55.902;13.606;2023-12-14T00:29:43;100509.52;;;-4.37;73.38
49709;BME280;35601;55.902;13.606;2023-12-14T00:32:08;100510.14;;;-4.04;72.94
49709;BME280;35601;55.902;13.606;2023-12-14T00:34:33;100512.86;;;-4.16;72.73
49709;BME280;35601;55.902;13.606;2023-12-14T00:36:59;100519.22;;;-4.32;73.04
49709;BME280;35601;55.902;13.606;2023-12-14T00:39:25;100520.55;;;-4.25;73.62
49709;BME280;35601;55.902;13.606;2023-12-14T00:41:50;100520.53;;;-4.21;73.63
49709;BME280;35601;55.902;13.606;2023-12-14T00:44:16;100520.55;;;-4.32;73.36
49709;BME280;35601;55.902;13.606;2023-12-14T00:46:41;100519.85;;;-3.90;73.64
49709;BME280;35601;55.902;13.606;2023-12-14T00:49:07;100523.08;;;-4.30;73.33
49709;BME280;35601;55.902;13.606;2023-12-14T00:51:32;100523.38;;;-4.26;73.15
49709;BME280;35601;55.902;13.606;2023-12-14T00:53:57;100528.96;;;-4.03;73.73
49709;BME280;35601;55.902;13.606;2023-12-14T00:56:23;100529.59;;;-4.00;73.33
49709;BME280;35601;55.902;13.606;2023-12-14T00:58:49;100532.08;;;-4.25;73.12
49709;BME280;35601;55.902;13.606;2023-12-14T01:01:14;100539.09;;;-3.94;72.73
49709;BME280;35601;55.902;13.606;2023-12-14T01:03:40;100541.76;;;-4.22;72.95
49709;BME280;35601;55.902;13.606;2023-12-14T01:06:05;100540.20;;;-4.07;72.35
49709;BME280;35601;55.902;13.606;2023-12-14T01:08:30;100543.39;;;-4.52;73.26
49709;BME280;35601;55.902;13.606;2023-12-14T01:10:55;100544.62;;;-3.93;73.20
49709;BME280;35601;55.902;13.606;2023-12-14T01:13:21;100545.75;;;-4.00;72.92
49709;BME280;35601;55.902;13.606;2023-12-14T01:15:46;100550.58;;;-4.03;72.82
49709;BME280;35601;55.902;13.606;2023-12-14T01:18:12;100553.81;;;-4.04;72.70
49709;BME280;35601;55.902;13.606;2023-12-14T01:20:37;100548.27;;;-3.80;72.60
49709;BME280;35601;55.902;13.606;2023-12-14T01:23:03;100556.04;;;-4.10;72.88
49709;BME280;35601;55.902;13.606;2023-12-14T01:25:28;100567.10;;;-3.79;72.64
49709;BME280;35601;55.902;13.606;2023-12-14T01:27:59;100572.62;;;-4.12;73.16
49709;BME280;35601;55.902;13.606;2023-12-14T01:30:19;100574.23;;;-4.11;73.39
49709;BME280;35601;55.902;13.606;2023-12-14T01:32:45;100578.45;;;-4.11;73.60
49709;BME280;35601;55.902;13.606;2023-12-14T01:35:10;100582.06;;;-4.03;73.18
49709;BME280;35601;55.902;13.606;2023-12-14T01:37:35;100583.47;;;-4.24;73.01
49709;BME280;35601;55.902;13.606;2023-12-14T01:40:01;100587.82;;;-4.21;72.87
49709;BME280;35601;55.902;13.606;2023-12-14T01:42:26;100588.09;;;-4.21;72.90
49709;BME280;35601;55.902;13.606;2023-12-14T01:44:52;100586.36;;;-4.13;72.56
49709;BME280;35601;55.902;13.606;2023-12-14T01:47:17;100586.77;;;-4.28;72.32
49709;BME280;35601;55.902;13.606;2023-12-14T01:49:43;100593.58;;;-4.16;72.82
49709;BME280;35601;55.902;13.606;2023-12-14T01:52:09;100590.03;;;-4.53;72.80
49709;BME280;35601;55.902;13.606;2023-12-14T01:54:34;100591.39;;;-4.29;72.58
49709;BME280;35601;55.902;13.606;2023-12-14T01:57:00;100590.53;;;-4.10;72.05
49709;BME280;35601;55.902;13.606;2023-12-14T01:59:25;100589.42;;;-4.02;71.62
49709;BME280;35601;55.902;13.606;2023-12-14T02:01:53;100588.36;;;-4.29;72.05
49709;BME280;35601;55.902;13.606;2023-12-14T02:04:16;100588.43;;;-4.37;72.17
49709;BME280;35601;55.902;13.606;2023-12-14T02:06:42;100589.55;;;-4.18;72.41
49709;BME280;35601;55.902;13.606;2023-12-14T02:09:07;100590.98;;;-4.06;72.91
49709;BME280;35601;55.902;13.606;2023-12-14T02:11:32;100592.71;;;-4.76;73.36
49709;BME280;35601;55.902;13.606;2023-12-14T02:14:02;100593.43;;;-4.20;73.41
49709;BME280;35601;55.902;13.606;2023-12-14T02:16:23;100595.99;;;-4.35;74.02
49709;BME280;35601;55.902;13.606;2023-12-14T02:18:48;100598.51;;;-4.29;73.95
49709;BME280;35601;55.902;13.606;2023-12-14T02:21:14;100599.52;;;-4.10;73.43
49709;BME280;35601;55.902;13.606;2023-12-14T02:23:43;100598.33;;;-4.07;73.23
49709;BME280;35601;55.902;13.606;2023-12-14T02:26:05;100598.19;;;-4.10;73.02
49709;BME280;35601;55.902;13.606;2023-12-14T02:28:30;100599.17;;;-4.36;73.38
49709;BME280;35601;55.902;13.606;2023-12-14T02:30:55;100596.27;;;-4.33;73.90
49709;BME280;35601;55.902;13.606;2023-12-14T02:33:20;100596.08;;;-4.46;73.72
49709;BME280;35601;55.902;13.606;2023-12-14T02:35:46;100593.34;;;-4.09;73.34
49709;BME280;35601;55.902;13.606;2023-12-14T02:38:11;100593.37;;;-4.55;73.64
49709;BME280;35601;55.902;13.606;2023-12-14T02:40:37;100594.27;;;-4.27;73.62
49709;BME280;35601;55.902;13.606;2023-12-14T02:43:02;100593.41;;;-4.61;73.08
49709;BME280;35601;55.902;13.606;2023-12-14T02:45:28;100600.26;;;-4.25;73.37
49709;BME280;35601;55.902;13.606;2023-12-14T02:47:53;100600.30;;;-4.45;73.25
49709;BME280;35601;55.902;13.606;2023-12-14T02:50:18;100604.55;;;-4.18;73.03
49709;BME280;35601;55.902;13.606;2023-12-14T02:52:44;100603.98;;;-4.49;73.36
49709;BME280;35601;55.902;13.606;2023-12-14T02:55:09;100603.48;;;-4.27;72.89
49709;BME280;35601;55.902;13.606;2023-12-14T02:57:34;100604.15;;;-4.25;72.49
49709;BME280;35601;55.902;13.606;2023-12-14T03:00:00;100604.25;;;-4.59;73.45
49709;BME280;35601;55.902;13.606;2023-12-14T03:02:25;100603.49;;;-4.22;73.20
49709;BME280;35601;55.902;13.606;2023-12-14T03:04:50;100598.59;;;-4.46;73.16
49709;BME280;35601;55.902;13.606;2023-12-14T03:07:16;100603.62;;;-4.39;73.00
49709;BME280;35601;55.902;13.606;2023-12-14T03:09:41;100609.81;;;-4.42;73.58
49709;BME280;35601;55.902;13.606;2023-12-14T03:12:07;100614.04;;;-4.36;73.55
49709;BME280;35601;55.902;13.606;2023-12-14T03:14:33;100614.87;;;-4.43;73.70
49709;BME280;35601;55.902;13.606;2023-12-14T03:16:58;100620.87;;;-4.36;73.72
49709;BME280;35601;55.902;13.606;2023-12-14T03:19:23;100621.81;;;-4.46;73.96
49709;BME280;35601;55.902;13.606;2023-12-14T03:21:49;100623.46;;;-4.38;73.38
49709;BME280;35601;55.902;13.606;2023-12-14T03:24:14;100625.31;;;-4.43;73.21
49709;BME280;35601;55.902;13.606;2023-12-14T03:26:39;100626.33;;;-4.73;74.18
49709;BME280;35601;55.902;13.606;2023-12-14T03:29:05;100624.31;;;-4.55;74.06
49709;BME280;35601;55.902;13.606;2023-12-14T03:31:30;100625.82;;;-4.84;74.36
49709;BME280;35601;55.902;13.606;2023-12-14T03:33:56;100630.68;;;-4.53;73.84
49709;BME280;35601;55.902;13.606;2023-12-14T03:36:21;100632.80;;;-4.54;73.64
49709;BME280;35601;55.902;13.606;2023-12-14T03:38:46;100633.57;;;-4.86;74.53
49709;BME280;35601;55.902;13.606;2023-12-14T03:41:12;100636.57;;;-4.73;74.85
49709;BME280;35601;55.902;13.606;2023-12-14T03:43:37;100643.48;;;-4.70;74.28
49709;BME280;35601;55.902;13.606;2023-12-14T03:46:03;100644.44;;;-4.65;73.69
49709;BME280;35601;55.902;13.606;2023-12-14T03:48:28;100639.53;;;-4.44;73.29
49709;BME280;35601;55.902;13.606;2023-12-14T03:50:54;100639.78;;;-4.50;73.04
49709;BME280;35601;55.902;13.606;2023-12-14T03:53:19;100642.95;;;-4.47;72.72
49709;BME280;35601;55.902;13.606;2023-12-14T03:55:44;100645.23;;;-4.30;72.41
49709;BME280;35601;55.902;13.606;2023-12-14T03:58:10;100643.97;;;-4.53;71.85
49709;BME280;35601;55.902;13.606;2023-12-14T04:00:35;100640.28;;;-4.34;71.82
49709;BME280;35601;55.902;13.606;2023-12-14T04:03:00;100638.24;;;-4.27;71.67
49709;BME280;35601;55.902;13.606;2023-12-14T04:05:26;100639.46;;;-4.82;72.24
49709;BME280;35601;55.902;13.606;2023-12-14T04:07:51;100640.94;;;-4.68;72.64
49709;BME280;35601;55.902;13.606;2023-12-14T04:10:17;100638.14;;;-4.44;71.96
49709;BME280;35601;55.902;13.606;2023-12-14T04:12:42;100641.98;;;-4.39;71.68
49709;BME280;35601;55.902;13.606;2023-12-14T04:15:09;100645.02;;;-4.24;72.06
49709;BME280;35601;55.902;13.606;2023-12-14T04:17:33;100654.20;;;-4.47;71.94
49709;BME280;35601;55.902;13.606;2023-12-14T04:19:58;100652.71;;;-4.77;72.64
49709;BME280;35601;55.902;13.606;2023-12-14T04:22:24;100653.54;;;-4.57;72.16
49709;BME280;35601;55.902;13.606;2023-12-14T04:24:50;100649.68;;;-4.51;71.76
49709;BME280;35601;55.902;13.606;2023-12-14T04:27:15;100651.74;;;-4.81;72.28
49709;BME280;35601;55.902;13.606;2023-12-14T04:29:40;100648.77;;;-4.68;72.29
49709;BME280;35601;55.902;13.606;2023-12-14T04:32:06;100649.30;;;-4.77;72.32
49709;BME280;35601;55.902;13.606;2023-12-14T04:34:31;100652.43;;;-4.86;72.37
49709;BME280;35601;55.902;13.606;2023-12-14T04:36:57;100653.91;;;-5.19;73.50
49709;BME280;35601;55.902;13.606;2023-12-14T04:39:22;100650.22;;;-4.56;73.17
49709;BME280;35601;55.902;13.606;2023-12-14T04:41:48;100661.31;;;-4.99;73.90
49709;BME280;35601;55.902;13.606;2023-12-14T04:44:13;100664.38;;;-5.38;74.72
49709;BME280;35601;55.902;13.606;2023-12-14T04:46:39;100666.90;;;-5.03;73.41
49709;BME280;35601;55.902;13.606;2023-12-14T04:49:04;100668.21;;;-5.05;73.17
49709;BME280;35601;55.902;13.606;2023-12-14T04:51:29;100670.71;;;-4.97;73.14
49709;BME280;35601;55.902;13.606;2023-12-14T04:53:55;100668.57;;;-5.02;73.00
49709;BME280;35601;55.902;13.606;2023-12-14T04:56:20;100670.35;;;-4.45;72.64
49709;BME280;35601;55.902;13.606;2023-12-14T04:58:46;100674.82;;;-4.85;72.23
49709;BME280;35601;55.902;13.606;2023-12-14T05:01:11;100681.10;;;-4.77;71.97
49709;BME280;35601;55.902;13.606;2023-12-14T05:03:37;100686.03;;;-5.03;72.41
49709;BME280;35601;55.902;13.606;2023-12-14T05:06:02;100692.74;;;-5.14;72.60
49709;BME280;35601;55.902;13.606;2023-12-14T05:08:27;100698.52;;;-5.08;72.51
49709;BME280;35601;55.902;13.606;2023-12-14T05:10:52;100701.42;;;-4.79;71.87
49709;BME280;35601;55.902;13.606;2023-12-14T05:13:18;100710.97;;;-4.78;71.42
49709;BME280;35601;55.902;13.606;2023-12-14T05:15:43;100716.94;;;-4.70;71.33
49709;BME280;35601;55.902;13.606;2023-12-14T05:18:08;100714.04;;;-4.64;71.22
49709;BME280;35601;55.902;13.606;2023-12-14T05:20:34;100712.83;;;-4.54;70.59
49709;BME280;35601;55.902;13.606;2023-12-14T05:22:59;100711.63;;;-4.52;70.34
49709;BME280;35601;55.902;13.606;2023-12-14T05:25:25;100713.48;;;-4.41;69.72
49709;BME280;35601;55.902;13.606;2023-12-14T05:27:50;100720.42;;;-4.84;70.20
49709;BME280;35601;55.902;13.606;2023-12-14T05:30:16;100716.90;;;-4.17;70.01
49709;BME280;35601;55.902;13.606;2023-12-14T05:32:41;100716.03;;;-4.24;69.41
49709;BME280;35601;55.902;13.606;2023-12-14T05:35:07;100711.21;;;-4.05;68.47
49709;BME280;35601;55.902;13.606;2023-12-14T05:37:32;100711.80;;;-4.19;68.34
49709;BME280;35601;55.902;13.606;2023-12-14T05:39:58;100715.59;;;-4.25;67.74
49709;BME280;35601;55.902;13.606;2023-12-14T05:42:23;100711.55;;;-4.47;67.60
49709;BME280;35601;55.902;13.606;2023-12-14T05:44:49;100707.94;;;-4.41;67.66
49709;BME280;35601;55.902;13.606;2023-12-14T05:47:14;100709.07;;;-4.21;67.23
49709;BME280;35601;55.902;13.606;2023-12-14T05:49:46;100710.84;;;-4.35;66.97
49709;BME280;35601;55.902;13.606;2023-12-14T05:52:05;100710.72;;;-3.98;66.61
49709;BME280;35601;55.902;13.606;2023-12-14T05:54:30;100712.08;;;-3.86;66.40
49709;BME280;35601;55.902;13.606;2023-12-14T05:56:56;100714.18;;;-4.99;66.52
49709;BME280;35601;55.902;13.606;2023-12-14T05:59:21;100718.35;;;-4.03;65.99
49709;BME280;35601;55.902;13.606;2023-12-14T06:01:46;100723.31;;;-4.27;65.64
49709;BME280;35601;55.902;13.606;2023-12-14T06:04:12;100727.70;;;-4.01;65.74
49709;BME280;35601;55.902;13.606;2023-12-14T06:06:38;100734.46;;;-4.03;65.52
49709;BME280;35601;55.902;13.606;2023-12-14T06:09:03;100741.18;;;-3.88;65.75
49709;BME280;35601;55.902;13.606;2023-12-14T06:11:28;100746.02;;;-4.13;65.68
49709;BME280;35601;55.902;13.606;2023-12-14T06:13:53;100747.09;;;-4.17;65.90
49709;BME280;35601;55.902;13.606;2023-12-14T06:16:19;100748.98;;;-4.16;65.60
49709;BME280;35601;55.902;13.606;2023-12-14T06:18:44;100749.05;;;-4.19;65.68
49709;BME280;35601;55.902;13.606;2023-12-14T06:21:11;100749.56;;;-4.16;65.73
49709;BME280;35601;55.902;13.606;2023-12-14T06:23:35;100749.17;;;-4.28;65.27
49709;BME280;35601;55.902;13.606;2023-12-14T06:26:02;100753.52;;;-3.88;65.28
49709;BME280;35601;55.902;13.606;2023-12-14T06:28:26;100752.22;;;-3.94;64.80
49709;BME280;35601;55.902;13.606;2023-12-14T06:30:52;100747.78;;;-4.00;64.67
49709;BME280;35601;55.902;13.606;2023-12-14T06:33:17;100753.75;;;-4.24;64.81
49709;BME280;35601;55.902;13.606;2023-12-14T06:35:43;100759.71;;;-3.87;64.75
49709;BME280;35601;55.902;13.606;2023-12-14T06:38:08;100762.81;;;-3.72;64.30
49709;BME280;35601;55.902;13.606;2023-12-14T06:40:35;100762.44;;;-3.95;64.41
49709;BME280;35601;55.902;13.606;2023-12-14T06:42:59;100768.06;;;-4.05;64.10
49709;BME280;35601;55.902;13.606;2023-12-14T06:45:24;100766.16;;;-3.92;64.45
49709;BME280;35601;55.902;13.606;2023-12-14T06:47:49;100766.71;;;-4.01;64.41
49709;BME280;35601;55.902;13.606;2023-12-14T06:50:15;100767.45;;;-3.83;64.67
49709;BME280;35601;55.902;13.606;2023-12-14T06:52:41;100770.84;;;-4.04;63.96
49709;BME280;35601;55.902;13.606;2023-12-14T06:55:07;100770.23;;;-3.91;64.06
49709;BME280;35601;55.902;13.606;2023-12-14T06:57:31;100766.32;;;-3.79;63.80
49709;BME280;35601;55.902;13.606;2023-12-14T06:59:57;100767.19;;;-3.81;63.95
49709;BME280;35601;55.902;13.606;2023-12-14T07:02:22;100767.26;;;-4.13;63.90
49709;BME280;35601;55.902;13.606;2023-12-14T07:04:48;100772.38;;;-4.08;64.44
49709;BME280;35601;55.902;13.606;2023-12-14T07:07:14;100775.95;;;-3.99;64.29
49709;BME280;35601;55.902;13.606;2023-12-14T07:09:39;100783.20;;;-4.09;64.24
49709;BME280;35601;55.902;13.606;2023-12-14T07:12:04;100787.24;;;-3.92;64.07
49709;BME280;35601;55.902;13.606;2023-12-14T07:14:29;100787.98;;;-3.83;63.94
49709;BME280;35601;55.902;13.606;2023-12-14T07:16:55;100790.96;;;-3.98;64.43
49709;BME280;35601;55.902;13.606;2023-12-14T07:19:21;100791.56;;;-4.06;64.88
49709;BME280;35601;55.902;13.606;2023-12-14T07:21:46;100796.35;;;-4.02;64.75
49709;BME280;35601;55.902;13.606;2023-12-14T07:24:11;100801.77;;;-4.00;64.66
49709;BME280;35601;55.902;13.606;2023-12-14T07:26:36;100803.81;;;-4.07;64.73
49709;BME280;35601;55.902;13.606;2023-12-14T07:29:01;100805.95;;;-3.94;64.61
49709;BME280;35601;55.902;13.606;2023-12-14T07:31:27;100811.07;;;-3.89;64.07
49709;BME280;35601;55.902;13.606;2023-12-14T07:33:52;100813.75;;;-3.79;64.23
49709;BME280;35601;55.902;13.606;2023-12-14T07:36:18;100817.37;;;-3.66;64.04
49709;BME280;35601;55.902;13.606;2023-12-14T07:38:43;100820.10;;;-3.66;64.15
49709;BME280;35601;55.902;13.606;2023-12-14T07:41:09;100822.17;;;-3.62;63.72
49709;BME280;35601;55.902;13.606;2023-12-14T07:43:34;100825.33;;;-3.70;63.52
49709;BME280;35601;55.902;13.606;2023-12-14T07:45:59;100831.18;;;-3.58;63.63
49709;BME280;35601;55.902;13.606;2023-12-14T07:48:25;100836.13;;;-3.92;63.55
49709;BME280;35601;55.902;13.606;2023-12-14T07:50:50;100839.54;;;-4.21;63.60
49709;BME280;35601;55.902;13.606;2023-12-14T07:53:16;100843.76;;;-3.92;63.78
49709;BME280;35601;55.902;13.606;2023-12-14T07:55:41;100852.26;;;-3.89;63.94
49709;BME280;35601;55.902;13.606;2023-12-14T07:58:06;100855.79;;;-3.97;64.57
49709;BME280;35601;55.902;13.606;2023-12-14T08:00:32;100867.03;;;-3.94;64.50
49709;BME280;35601;55.902;13.606;2023-12-14T08:02:57;100870.77;;;-3.93;64.53
49709;BME280;35601;55.902;13.606;2023-12-14T08:05:23;100875.86;;;-4.09;65.05
49709;BME280;35601;55.902;13.606;2023-12-14T08:07:48;100876.26;;;-3.98;65.02
49709;BME280;35601;55.902;13.606;2023-12-14T08:10:14;100879.28;;;-3.96;64.81
49709;BME280;35601;55.902;13.606;2023-12-14T08:12:39;100878.32;;;-4.03;64.52
49709;BME280;35601;55.902;13.606;2023-12-14T08:15:05;100876.12;;;-3.75;64.51
49709;BME280;35601;55.902;13.606;2023-12-14T08:17:35;100875.24;;;-3.73;64.14
49709;BME280;35601;55.902;13.606;2023-12-14T08:19:55;100877.23;;;-3.91;64.38
49709;BME280;35601;55.902;13.606;2023-12-14T08:22:20;100876.75;;;-3.76;63.94
49709;BME280;35601;55.902;13.606;2023-12-14T08:24:45;100879.82;;;-3.70;64.08
49709;BME280;35601;55.902;13.606;2023-12-14T08:27:11;100878.83;;;-4.04;64.20
49709;BME280;35601;55.902;13.606;2023-12-14T08:29:36;100882.13;;;-3.77;64.17
49709;BME280;35601;55.902;13.606;2023-12-14T08:32:02;100875.91;;;-3.62;64.07
49709;BME280;35601;55.902;13.606;2023-12-14T08:34:27;100877.19;;;-4.03;64.16
49709;BME280;35601;55.902;13.606;2023-12-14T08:36:53;100886.70;;;-4.10;64.27
49709;BME280;35601;55.902;13.606;2023-12-14T08:39:18;100891.46;;;-3.86;64.48
49709;BME280;35601;55.902;13.606;2023-12-14T08:41:43;100889.07;;;-3.98;64.56
49709;BME280;35601;55.902;13.606;2023-12-14T08:44:09;100892.59;;;-3.85;64.48
49709;BME280;35601;55.902;13.606;2023-12-14T08:46:40;100901.24;;;-3.96;64.26
49709;BME280;35601;55.902;13.606;2023-12-14T08:49:00;100902.31;;;-4.00;63.79
49709;BME280;35601;55.902;13.606;2023-12-14T08:51:25;100902.02;;;-3.73;63.63
49709;BME280;35601;55.902;13.606;2023-12-14T08:53:51;100904.57;;;-3.70;63.85
49709;BME280;35601;55.902;13.606;2023-12-14T08:56:16;100904.06;;;-3.88;63.41
49709;BME280;35601;55.902;13.606;2023-12-14T08:58:41;100906.51;;;-3.60;63.38
49709;BME280;35601;55.902;13.606;2023-12-14T09:01:07;100909.10;;;-4.06;63.96
49709;BME280;35601;55.902;13.606;2023-12-14T09:03:32;100912.71;;;-3.71;63.49
49709;BME280;35601;55.902;13.606;2023-12-14T09:05:57;100914.03;;;-3.63;63.04
49709;BME280;35601;55.902;13.606;2023-12-14T09:08:23;100915.06;;;-3.59;63.23
49709;BME280;35601;55.902;13.606;2023-12-14T09:10:48;100918.15;;;-3.58;63.25
49709;BME280;35601;55.902;13.606;2023-12-14T09:13:13;100921.62;;;-3.69;62.91
49709;BME280;35601;55.902;13.606;2023-12-14T09:15:39;100926.79;;;-3.56;62.59
49709;BME280;35601;55.902;13.606;2023-12-14T09:18:04;100932.05;;;-3.01;62.03
49709;BME280;35601;55.902;13.606;2023-12-14T09:20:30;100931.90;;;-3.34;61.64
49709;BME280;35601;55.902;13.606;2023-12-14T09:22:55;100939.22;;;-3.25;61.63
49709;BME280;35601;55.902;13.606;2023-12-14T09:25:20;100940.59;;;-3.21;61.58
49709;BME280;35601;55.902;13.606;2023-12-14T09:27:46;100936.95;;;-3.27;61.24
49709;BME280;35601;55.902;13.606;2023-12-14T09:30:12;100937.78;;;-3.29;60.90
49709;BME280;35601;55.902;13.606;2023-12-14T09:32:36;100940.60;;;-3.11;60.96
49709;BME280;35601;55.902;13.606;2023-12-14T09:35:02;100941.61;;;-2.91;60.85
49709;BME280;35601;55.902;13.606;2023-12-14T09:37:27;100946.20;;;-3.06;60.66
49709;BME280;35601;55.902;13.606;2023-12-14T09:39:53;100947.66;;;-2.99;60.63
49709;BME280;35601;55.902;13.606;2023-12-14T09:42:20;100944.68;;;-4.60;60.21
49709;BME280;35601;55.902;13.606;2023-12-14T09:44:44;100942.97;;;-2.61;59.28
49709;BME280;35601;55.902;13.606;2023-12-14T09:47:09;100944.71;;;-2.58;58.94
49709;BME280;35601;55.902;13.606;2023-12-14T09:49:36;100941.92;;;-2.46;58.21
49709;BME280;35601;55.902;13.606;2023-12-14T09:52:00;100941.98;;;-2.80;58.36
49709;BME280;35601;55.902;13.606;2023-12-14T09:54:26;100944.38;;;-2.82;58.51
49709;BME280;35601;55.902;13.606;2023-12-14T09:56:51;100942.76;;;-2.78;58.77
49709;BME280;35601;55.902;13.606;2023-12-14T09:59:16;100943.64;;;-2.52;58.88
49709;BME280;35601;55.902;13.606;2023-12-14T10:01:41;100939.96;;;-2.79;59.20
49709;BME280;35601;55.902;13.606;2023-12-14T10:04:08;100940.33;;;-2.51;59.02
49709;BME280;35601;55.902;13.606;2023-12-14T10:06:33;100936.30;;;-2.65;58.73
49709;BME280;35601;55.902;13.606;2023-12-14T10:08:58;100936.08;;;-2.78;59.01
49709;BME280;35601;55.902;13.606;2023-12-14T10:11:23;100935.13;;;-2.46;58.80
49709;BME280;35601;55.902;13.606;2023-12-14T10:13:49;100935.30;;;-2.70;58.87
49709;BME280;35601;55.902;13.606;2023-12-14T10:16:28;100934.94;;;-2.33;58.67
49709;BME280;35601;55.902;13.606;2023-12-14T10:18:39;100937.96;;;-2.30;58.40
49709;BME280;35601;55.902;13.606;2023-12-14T10:21:06;100940.04;;;-2.54;58.55
49709;BME280;35601;55.902;13.606;2023-12-14T10:23:30;100940.43;;;-2.70;58.89
49709;BME280;35601;55.902;13.606;2023-12-14T10:25:56;100942.48;;;-2.68;59.40
49709;BME280;35601;55.902;13.606;2023-12-14T10:28:22;100937.63;;;-2.72;58.82
49709;BME280;35601;55.902;13.606;2023-12-14T10:30:46;100932.40;;;-2.77;59.39
49709;BME280;35601;55.902;13.606;2023-12-14T10:33:12;100929.78;;;-2.58;59.69
49709;BME280;35601;55.902;13.606;2023-12-14T10:35:37;100932.69;;;-2.80;59.92
49709;BME280;35601;55.902;13.606;2023-12-14T10:38:04;100933.81;;;-2.63;59.75
49709;BME280;35601;55.902;13.606;2023-12-14T10:40:29;100936.17;;;-2.62;59.74
49709;BME280;35601;55.902;13.606;2023-12-14T10:42:55;100938.24;;;-2.51;60.48
49709;BME280;35601;55.902;13.606;2023-12-14T10:45:21;100940.74;;;-2.23;59.63
49709;BME280;35601;55.902;13.606;2023-12-14T10:47:46;100943.28;;;-2.69;60.04
49709;BME280;35601;55.902;13.606;2023-12-14T10:50:10;100944.16;;;-2.71;59.62
49709;BME280;35601;55.902;13.606;2023-12-14T10:52:36;100947.94;;;-2.61;59.53
49709;BME280;35601;55.902;13.606;2023-12-14T10:55:06;100951.60;;;-2.59;59.31
49709;BME280;35601;55.902;13.606;2023-12-14T10:57:26;100952.94;;;-2.46;60.12
49709;BME280;35601;55.902;13.606;2023-12-14T10:59:57;100952.92;;;-2.31;60.39
49709;BME280;35601;55.902;13.606;2023-12-14T11:02:17;100952.42;;;-2.68;60.59
49709;BME280;35601;55.902;13.606;2023-12-14T11:04:55;100949.55;;;-2.31;61.05
49709;BME280;35601;55.902;13.606;2023-12-14T11:07:07;100950.81;;;-2.40;61.06
49709;BME280;35601;55.902;13.606;2023-12-14T11:09:32;100953.48;;;-2.81;61.14
49709;BME280;35601;55.902;13.606;2023-12-14T11:11:57;100953.77;;;-2.54;61.63
49709;BME280;35601;55.902;13.606;2023-12-14T11:14:24;100955.48;;;-2.38;60.91
49709;BME280;35601;55.902;13.606;2023-12-14T11:16:48;100956.53;;;-2.29;60.61
49709;BME280;35601;55.902;13.606;2023-12-14T11:19:25;100957.21;;;-2.65;60.58
49709;BME280;35601;55.902;13.606;2023-12-14T11:21:39;100958.40;;;-2.64;60.73
49709;BME280;35601;55.902;13.606;2023-12-14T11:24:05;100961.41;;;-2.09;61.10
49709;BME280;35601;55.902;13.606;2023-12-14T11:26:30;100961.29;;;-2.23;60.47
49709;BME280;35601;55.902;13.606;2023-12-14T11:28:55;100968.50;;;-2.48;59.11
49709;BME280;35601;55.902;13.606;2023-12-14T11:31:21;100969.86;;;-2.34;59.27
49709;BME280;35601;55.902;13.606;2023-12-14T11:33:46;100974.06;;;-1.95;58.86
49709;BME280;35601;55.902;13.606;2023-12-14T11:36:12;100974.52;;;-1.85;58.58
49709;BME280;35601;55.902;13.606;2023-12-14T11:38:37;100975.38;;;-1.96;58.25
49709;BME280;35601;55.902;13.606;2023-12-14T11:41:02;100976.22;;;-1.91;57.32
49709;BME280;35601;55.902;13.606;2023-12-14T11:43:27;100980.14;;;-1.82;56.99
49709;BME280;35601;55.902;13.606;2023-12-14T11:45:53;100981.64;;;-1.83;56.68
49709;BME280;35601;55.902;13.606;2023-12-14T11:48:18;100983.36;;;-1.69;56.47
49709;BME280;35601;55.902;13.606;2023-12-14T11:50:43;100985.02;;;-1.55;56.59
49709;BME280;35601;55.902;13.606;2023-12-14T11:53:09;100984.73;;;-1.43;56.91
49709;BME280;35601;55.902;13.606;2023-12-14T11:55:36;100987.21;;;-1.25;56.86
49709;BME280;35601;55.902;13.606;2023-12-14T11:58:05;100983.90;;;-1.55;56.73
49709;BME280;35601;55.902;13.606;2023-12-14T12:00:25;100985.72;;;-1.39;56.57
49709;BME280;35601;55.902;13.606;2023-12-14T12:02:50;100981.79;;;-1.26;56.31
49709;BME280;35601;55.902;13.606;2023-12-14T12:07:41;100982.95;;;-1.05;54.92
49709;BME280;35601;55.902;13.606;2023-12-14T12:10:07;100982.39;;;-1.23;54.29
49709;BME280;35601;55.902;13.606;2023-12-14T12:12:33;100981.36;;;-1.17;53.99
49709;BME280;35601;55.902;13.606;2023-12-14T12:14:57;100982.72;;;-1.04;53.81
49709;BME280;35601;55.902;13.606;2023-12-14T12:17:23;100975.40;;;-1.18;53.41
49709;BME280;35601;55.902;13.606;2023-12-14T12:19:48;100971.53;;;-1.29;54.32
49709;BME280;35601;55.902;13.606;2023-12-14T12:22:13;100972.11;;;-1.30;54.20
49709;BME280;35601;55.902;13.606;2023-12-14T12:24:38;100975.54;;;-1.15;54.53
49709;BME280;35601;55.902;13.606;2023-12-14T12:27:04;100976.03;;;-1.46;55.61
49709;BME280;35601;55.902;13.606;2023-12-14T12:29:30;100978.17;;;-1.56;56.00
49709;BME280;35601;55.902;13.606;2023-12-14T12:31:55;100984.32;;;-1.65;57.00